Time;durP1;ratioP1;P1;durP2;ratioP2;P2;SDS_P1;SDS_P2;PMS_P1;PMS_P2;Temp;Humidity;BMP_temperature;BMP_pressure;BME280_temperature;BME280_humidity;BME280_pressure;Samples;Min_cycle;Max_cycle;Signal;HPM_P1;HPM_P2
2022/06/28 00:01:50;;;;;;;0.87;0.80;;;17.60;99.90;;;;;;5048231;28;20224;-65
2022/06/28 00:04:18;;;;;;;0.60;0.60;;;17.60;99.90;;;;;;5042333;28;20242;-65
2022/06/28 00:06:45;;;;;;;0.50;0.50;;;17.50;99.90;;;;;;5047434;28;20258;-66
2022/06/28 00:09:14;;;;;;;0.57;0.57;;;17.50;99.90;;;;;;5050947;28;20214;-64
2022/06/28 00:11:42;;;;;;;0.60;0.60;;;17.50;99.90;;;;;;5048979;28;20351;-65
2022/06/28 00:16:50;;;;;;;0.60;0.60;;;17.50;99.90;;;;;;5050983;28;20214;-65
2022/06/28 00:19:19;;;;;;;0.63;0.63;;;17.50;99.90;;;;;;5053069;28;20282;-66
2022/06/28 00:21:46;;;;;;;1.23;0.70;;;17.50;99.90;;;;;;5040941;28;21009;-65
2022/06/28 00:24:12;;;;;;;0.50;0.50;;;17.50;99.90;;;;;;5046857;28;20204;-65
2022/06/28 00:26:39;;;;;;;0.80;0.80;;;17.50;99.90;;;;;;5039412;28;20238;-66
2022/06/28 00:29:06;;;;;;;0.70;0.70;;;17.50;99.90;;;;;;5046767;28;20291;-65
2022/06/28 00:31:33;;;;;;;0.63;0.63;;;17.40;99.90;;;;;;5038454;28;20653;-65
2022/06/28 00:34:00;;;;;;;0.70;0.70;;;17.40;99.90;;;;;;5046019;28;20226;-66
2022/06/28 00:36:29;;;;;;;0.60;0.60;;;17.30;99.90;;;;;;5045516;28;20670;-65
2022/06/28 00:38:55;;;;;;;0.53;0.53;;;17.30;99.90;;;;;;5040607;28;20307;-64
2022/06/28 00:41:22;;;;;;;1.13;0.77;;;17.30;99.90;;;;;;5045637;28;20761;-66
2022/06/28 00:43:49;;;;;;;0.50;0.50;;;17.20;99.90;;;;;;5038574;28;20295;-65
2022/06/28 00:46:16;;;;;;;1.10;0.80;;;17.20;99.90;;;;;;5045200;28;20239;-66
2022/06/28 00:48:43;;;;;;;0.60;0.60;;;17.10;99.90;;;;;;5037303;28;20229;-65
2022/06/28 00:51:10;;;;;;;0.70;0.70;;;17.10;99.90;;;;;;5045208;28;20302;-65
2022/06/28 00:53:39;;;;;;;0.87;0.80;;;17.10;99.90;;;;;;5036804;28;20761;-66
2022/06/28 00:56:06;;;;;;;0.70;0.70;;;17.10;99.90;;;;;;5045083;28;20315;-66
2022/06/28 00:58:33;;;;;;;0.50;0.50;;;17.10;99.90;;;;;;5043451;28;20307;-66
2022/06/28 01:01:00;;;;;;;0.80;0.80;;;17.10;99.90;;;;;;5039272;28;20365;-65
2022/06/28 01:03:28;;;;;;;0.60;0.60;;;17.10;99.90;;;;;;5045119;28;20291;-65
2022/06/28 01:05:55;;;;;;;0.80;0.80;;;17.10;99.90;;;;;;5039153;28;20577;-65
2022/06/28 01:08:22;;;;;;;0.50;0.50;;;17.30;99.90;;;;;;5045044;28;20291;-64
2022/06/28 01:10:50;;;;;;;0.40;0.40;;;17.30;99.90;;;;;;5050965;28;20220;-65
2022/06/28 01:13:17;;;;;;;0.60;0.60;;;17.40;99.90;;;;;;5041959;28;20572;-66
2022/06/28 01:15:44;;;;;;;0.50;0.50;;;17.40;99.90;;;;;;5043048;28;20207;-65
2022/06/28 01:18:12;;;;;;;0.50;0.50;;;17.40;99.90;;;;;;5041840;28;20620;-67
2022/06/28 01:20:42;;;;;;;0.40;0.40;;;17.40;99.90;;;;;;5042007;28;20315;-67
2022/06/28 01:23:10;;;;;;;0.37;0.37;;;17.50;99.90;;;;;;5042262;28;20288;-65
2022/06/28 01:25:37;;;;;;;0.80;0.53;;;17.50;99.90;;;;;;5044558;28;20292;-64
2022/06/28 01:28:07;;;;;;;0.50;0.50;;;17.50;99.90;;;;;;5041423;28;20197;-65
2022/06/28 01:30:34;;;;;;;0.60;0.60;;;17.50;99.90;;;;;;5042502;28;20267;-65
2022/06/28 01:33:03;;;;;;;0.63;0.63;;;17.50;99.90;;;;;;5041582;28;20236;-65
2022/06/28 01:35:30;;;;;;;0.50;0.50;;;17.50;99.90;;;;;;5041426;28;20295;-65
2022/06/28 01:37:58;;;;;;;0.40;0.40;;;17.50;99.90;;;;;;5045203;28;20330;-65
2022/06/28 01:40:26;;;;;;;0.70;0.70;;;17.50;99.90;;;;;;5055262;28;20246;-65
2022/06/28 01:42:53;;;;;;;0.63;0.63;;;17.50;99.90;;;;;;5045656;28;20206;-65
2022/06/28 01:45:20;;;;;;;0.70;0.70;;;17.50;99.90;;;;;;5045273;28;20295;-66
2022/06/28 01:47:48;;;;;;;0.50;0.50;;;17.60;99.90;;;;;;5041682;28;20303;-65
2022/06/28 01:50:15;;;;;;;0.60;0.60;;;17.60;99.90;;;;;;5041763;28;20221;-65
2022/06/28 01:52:43;;;;;;;0.60;0.60;;;17.80;99.90;;;;;;5037680;28;20347;-64
2022/06/28 01:55:10;;;;;;;0.70;0.70;;;17.80;99.90;;;;;;5041369;28;20216;-65
2022/06/28 01:57:39;;;;;;;0.60;0.60;;;17.70;99.90;;;;;;5042369;28;20313;-65
2022/06/28 02:00:08;;;;;;;0.40;0.40;;;17.70;99.90;;;;;;5041266;28;20224;-65
2022/06/28 02:02:35;;;;;;;0.50;0.50;;;17.60;99.90;;;;;;5051197;28;20567;-66
2022/06/28 02:05:02;;;;;;;0.50;0.50;;;17.50;99.90;;;;;;5065337;28;20239;-66
2022/06/28 02:07:29;;;;;;;0.60;0.60;;;17.50;99.90;;;;;;5059176;28;20267;-66
2022/06/28 02:09:56;;;;;;;0.70;0.70;;;17.50;99.90;;;;;;5055455;28;20823;-66
2022/06/28 02:12:23;;;;;;;0.50;0.50;;;17.50;99.90;;;;;;5055705;28;20208;-65
2022/06/28 02:14:51;;;;;;;0.60;0.60;;;17.30;99.90;;;;;;5067983;28;20276;-65
2022/06/28 02:17:18;;;;;;;0.50;0.50;;;17.20;99.90;;;;;;5071296;28;20200;-67
2022/06/28 02:19:44;;;;;;;0.50;0.50;;;17.20;99.90;;;;;;5063659;28;20240;-67
2022/06/28 02:22:11;;;;;;;0.70;0.70;;;17.10;99.90;;;;;;5059549;28;20277;-65
2022/06/28 02:24:39;;;;;;;0.70;0.70;;;17.10;99.90;;;;;;5043798;28;20235;-64
2022/06/28 02:27:07;;;;;;;0.90;0.80;;;17.20;99.90;;;;;;5035203;28;20291;-65
2022/06/28 02:29:34;;;;;;;0.90;0.90;;;17.30;99.90;;;;;;5051858;28;20207;-65
2022/06/28 02:32:02;;;;;;;0.50;0.50;;;17.20;99.90;;;;;;5053216;28;20314;-66
2022/06/28 02:42:41;;;;;;;0.70;0.70;;;17.00;99.90;;;;;;5044778;28;20215;-65
2022/06/28 02:45:09;;;;;;;0.70;0.70;;;17.00;99.90;;;;;;5059775;28;20569;-66
2022/06/28 02:47:37;;;;;;;0.73;0.73;;;17.10;99.90;;;;;;5052055;28;20243;-65
2022/06/28 02:50:05;;;;;;;0.70;0.70;;;17.10;99.90;;;;;;5050771;28;20666;-65
2022/06/28 02:52:32;;;;;;;0.70;0.70;;;17.00;99.90;;;;;;5043662;28;20211;-64
2022/06/28 02:54:59;;;;;;;0.70;0.70;;;17.00;99.90;;;;;;5045227;28;20204;-66
2022/06/28 02:57:26;;;;;;;0.70;0.70;;;17.00;99.90;;;;;;5044723;28;20667;-65
2022/06/28 02:59:52;;;;;;;0.60;0.60;;;17.10;99.90;;;;;;5040589;28;20228;-65
2022/06/28 03:02:19;;;;;;;1.27;0.67;;;17.10;99.90;;;;;;5040632;28;20208;-65
2022/06/28 03:04:47;;;;;;;0.50;0.50;;;17.10;99.90;;;;;;5048800;28;20299;-65
2022/06/28 03:07:14;;;;;;;0.70;0.70;;;17.10;99.90;;;;;;5040097;28;20645;-64
2022/06/28 03:09:41;;;;;;;0.50;0.50;;;17.10;99.90;;;;;;5042057;28;20210;-65
2022/06/28 03:12:09;;;;;;;0.70;0.63;;;17.10;99.90;;;;;;5040369;28;20228;-65
2022/06/28 03:14:36;;;;;;;0.50;0.50;;;17.10;99.90;;;;;;5040677;28;20204;-65
2022/06/28 03:17:03;;;;;;;0.50;0.50;;;17.10;99.90;;;;;;5040416;28;20204;-65
2022/06/28 03:19:30;;;;;;;0.50;0.50;;;17.20;99.90;;;;;;5040114;28;20678;-65
2022/06/28 03:21:58;;;;;;;0.40;0.40;;;17.20;99.90;;;;;;5040160;28;20640;-65
2022/06/28 03:24:25;;;;;;;0.60;0.60;;;17.20;99.90;;;;;;5040199;28;20292;-64
2022/06/28 03:26:52;;;;;;;0.63;0.60;;;17.30;99.90;;;;;;5041520;28;20228;-66
2022/06/28 03:29:19;;;;;;;0.57;0.57;;;17.20;99.90;;;;;;5051498;28;20192;-66
2022/06/28 03:31:46;;;;;;;1.27;0.70;;;17.20;99.90;;;;;;5044188;28;20231;-65
2022/06/28 03:34:13;;;;;;;0.60;0.60;;;17.10;99.90;;;;;;5050291;28;20268;-65
2022/06/28 03:36:40;;;;;;;0.50;0.50;;;17.00;99.90;;;;;;5063346;28;20268;-65
2022/06/28 03:39:08;;;;;;;0.53;0.53;;;16.90;99.90;;;;;;5061749;28;20230;-65
2022/06/28 03:41:35;;;;;;;0.70;0.70;;;16.80;99.90;;;;;;5055167;28;20739;-65
2022/06/28 03:44:02;;;;;;;0.70;0.70;;;16.80;99.90;;;;;;5047680;28;20200;-65
2022/06/28 03:46:29;;;;;;;0.43;0.43;;;16.70;99.90;;;;;;5040971;28;20243;-67
2022/06/28 03:48:56;;;;;;;0.60;0.60;;;16.70;99.90;;;;;;5046851;28;20657;-64
2022/06/28 03:51:23;;;;;;;1.80;0.60;;;16.70;99.90;;;;;;5054806;28;20282;-66
2022/06/28 03:53:49;;;;;;;0.50;0.50;;;16.70;99.90;;;;;;5075986;28;20224;-66
2022/06/28 03:56:18;;;;;;;0.50;0.50;;;16.70;99.90;;;;;;5054914;28;20229;-66
2022/06/28 03:58:45;;;;;;;0.40;0.40;;;16.70;99.90;;;;;;5045576;28;20260;-64
2022/06/28 04:01:12;;;;;;;0.70;0.70;;;16.60;99.90;;;;;;5061427;22;20259;-65
2022/06/28 04:03:39;;;;;;;0.67;0.67;;;16.50;99.90;;;;;;5051267;28;20218;-65
2022/06/28 04:06:06;;;;;;;0.43;0.43;;;16.50;99.90;;;;;;5043865;28;20232;-65
2022/06/28 04:08:32;;;;;;;0.63;0.60;;;16.50;99.90;;;;;;5048997;28;20203;-66
2022/06/28 04:11:14;;;;;;;0.60;0.60;;;16.60;99.90;;;;;;5051665;28;21063;-65
2022/06/28 04:13:44;;;;;;;0.60;0.60;;;16.60;99.90;;;;;;5055661;28;20203;-65
2022/06/28 04:16:11;;;;;;;1.27;0.70;;;16.50;99.90;;;;;;5059346;28;20291;-66
2022/06/28 04:18:38;;;;;;;0.67;0.67;;;16.50;99.90;;;;;;5064504;28;20257;-65
2022/06/28 04:21:05;;;;;;;0.60;0.60;;;16.40;99.90;;;;;;5056050;28;20255;-64
2022/06/28 04:23:32;;;;;;;0.70;0.70;;;16.30;99.90;;;;;;5062876;28;20238;-64
2022/06/28 04:25:58;;;;;;;0.60;0.60;;;16.30;99.90;;;;;;5055781;28;20208;-66
2022/06/28 04:28:25;;;;;;;0.60;0.60;;;16.30;99.90;;;;;;5056544;28;20277;-66
2022/06/28 04:30:53;;;;;;;0.70;0.60;;;16.40;99.90;;;;;;5052179;28;20237;-66
2022/06/28 04:33:20;;;;;;;0.67;0.60;;;16.60;99.90;;;;;;5054642;28;20204;-65
2022/06/28 04:35:47;;;;;;;0.77;0.57;;;16.70;99.90;;;;;;5055670;28;20207;-66
2022/06/28 04:38:14;;;;;;;0.70;0.70;;;16.70;99.90;;;;;;5053091;28;20784;-64
2022/06/28 04:40:41;;;;;;;0.70;0.70;;;16.70;99.90;;;;;;5054168;28;20230;-65
2022/06/28 04:43:09;;;;;;;1.13;0.60;;;16.80;99.90;;;;;;5054380;28;20208;-65
2022/06/28 04:45:36;;;;;;;0.70;0.70;;;16.80;99.90;;;;;;5056393;28;20608;-65
2022/06/28 04:48:05;;;;;;;0.70;0.70;;;16.90;99.90;;;;;;5062738;28;20765;-65
2022/06/28 04:50:32;;;;;;;1.27;1.00;;;17.10;99.90;;;;;;5056637;28;20219;-65
2022/06/28 04:52:59;;;;;;;0.80;0.80;;;17.20;99.90;;;;;;5053491;28;20204;-65
2022/06/28 04:55:26;;;;;;;0.70;0.70;;;17.40;99.90;;;;;;5056910;28;20207;-65
2022/06/28 04:57:53;;;;;;;1.10;0.80;;;17.50;99.90;;;;;;5061772;28;20677;-66
2022/06/28 05:00:20;;;;;;;0.50;0.50;;;17.60;99.90;;;;;;5056607;28;20633;-65
2022/06/28 05:02:47;;;;;;;0.70;0.70;;;17.90;99.90;;;;;;5055652;28;20200;-66
2022/06/28 05:05:15;;;;;;;0.97;0.47;;;18.10;99.90;;;;;;5054394;28;20204;-64
2022/06/28 05:07:42;;;;;;;0.40;0.40;;;18.20;99.90;;;;;;5055026;28;20227;-66
2022/06/28 05:10:10;;;;;;;0.60;0.60;;;18.30;99.90;;;;;;5064862;28;20204;-65
2022/06/28 05:12:36;;;;;;;0.50;0.50;;;18.40;99.90;;;;;;5053985;28;20208;-65
2022/06/28 05:15:04;;;;;;;0.70;0.70;;;18.60;99.90;;;;;;5047130;28;20253;-65
2022/06/28 05:17:31;;;;;;;1.07;0.50;;;18.80;99.90;;;;;;5049462;28;20206;-64
2022/06/28 05:19:58;;;;;;;0.60;0.60;;;18.90;99.90;;;;;;5053731;28;20310;-65
2022/06/28 05:22:26;;;;;;;0.67;0.67;;;19.10;99.90;;;;;;5053190;28;20219;-66
2022/06/28 05:24:55;;;;;;;0.70;0.70;;;19.40;99.90;;;;;;5054292;28;20239;-66
2022/06/28 05:27:22;;;;;;;0.50;0.50;;;19.50;99.90;;;;;;5058399;28;20204;-66
2022/06/28 05:29:49;;;;;;;2.43;0.70;;;19.70;99.90;;;;;;5053656;28;20223;-64
2022/06/28 05:32:16;;;;;;;0.50;0.50;;;19.80;99.90;;;;;;5059705;28;20270;-64
2022/06/28 05:34:42;;;;;;;0.70;0.70;;;19.90;99.90;;;;;;5059369;28;20210;-66
2022/06/28 05:37:11;;;;;;;1.00;0.90;;;20.10;99.90;;;;;;5055576;28;20199;-65
2022/06/28 05:39:39;;;;;;;0.40;0.40;;;20.20;99.90;;;;;;5055315;28;20232;-65
2022/06/28 05:42:06;;;;;;;0.40;0.40;;;20.40;99.90;;;;;;5061045;28;20222;-65
2022/06/28 05:44:33;;;;;;;0.30;0.30;;;20.50;99.90;;;;;;5057321;28;20303;-64
2022/06/28 05:47:00;;;;;;;0.63;0.63;;;20.50;99.90;;;;;;5059379;28;20246;-65
2022/06/28 05:49:27;;;;;;;0.85;0.60;;;20.50;99.90;;;;;;5052239;28;20200;-65
2022/06/28 05:51:54;;;;;;;0.80;0.80;;;20.50;99.90;;;;;;5058408;28;20251;-65
2022/06/28 05:54:21;;;;;;;0.50;0.50;;;20.50;99.90;;;;;;5053663;28;20298;-66
2022/06/28 05:56:49;;;;;;;0.60;0.60;;;20.40;99.90;;;;;;5052828;28;20286;-65
2022/06/28 05:59:16;;;;;;;0.50;0.50;;;20.30;99.90;;;;;;5057175;28;20220;-65
2022/06/28 06:01:43;;;;;;;0.57;0.57;;;20.20;99.90;;;;;;5055413;28;20289;-64
2022/06/28 06:04:10;;;;;;;0.53;0.53;;;20.10;99.90;;;;;;5052438;28;20200;-64
2022/06/28 06:06:37;;;;;;;0.80;0.80;;;20.00;99.90;;;;;;5058265;28;20610;-66
2022/06/28 06:09:04;;;;;;;0.60;0.60;;;19.70;99.90;;;;;;5051936;28;20200;-65
2022/06/28 06:11:31;;;;;;;0.60;0.60;;;19.30;99.90;;;;;;5062661;28;20281;-67
2022/06/28 06:14:00;;;;;;;0.70;0.70;;;19.30;99.90;;;;;;5056974;28;20204;-65
2022/06/28 06:16:26;;;;;;;1.23;0.80;;;19.30;99.90;;;;;;5059834;28;20204;-66
2022/06/28 06:18:53;;;;;;;0.50;0.50;;;19.50;99.90;;;;;;5051048;28;20244;-66
2022/06/28 06:21:20;;;;;;;0.70;0.70;;;19.50;99.90;;;;;;5056709;28;20320;-64
2022/06/28 06:23:47;;;;;;;0.50;0.50;;;19.60;99.90;;;;;;5051313;28;20207;-64
2022/06/28 06:26:14;;;;;;;0.70;0.70;;;19.50;99.90;;;;;;5050158;28;20644;-65
2022/06/28 06:28:41;;;;;;;1.20;0.80;;;19.40;99.90;;;;;;5055137;28;20911;-66
2022/06/28 06:31:09;;;;;;;0.60;0.60;;;19.60;99.90;;;;;;5054991;28;20252;-67
2022/06/28 06:33:37;;;;;;;0.80;0.80;;;19.70;99.90;;;;;;5052593;28;20745;-64
2022/06/28 06:36:04;;;;;;;0.67;0.67;;;19.70;99.90;;;;;;5048429;28;20277;-66
2022/06/28 06:38:31;;;;;;;0.70;0.70;;;19.80;99.90;;;;;;5052244;28;20231;-65
2022/06/28 06:40:59;;;;;;;0.80;0.80;;;19.90;99.90;;;;;;5049855;28;20302;-65
2022/06/28 06:43:27;;;;;;;0.90;0.90;;;20.00;99.90;;;;;;5050970;28;20211;-64
2022/06/28 06:45:54;;;;;;;0.80;0.80;;;20.20;99.90;;;;;;5050911;28;20202;-64
2022/06/28 06:48:23;;;;;;;0.77;0.77;;;20.30;99.90;;;;;;5050475;28;20658;-64
2022/06/28 06:50:50;;;;;;;0.80;0.80;;;20.40;99.90;;;;;;5060422;28;20315;-64
2022/06/28 06:53:19;;;;;;;0.70;0.70;;;20.60;99.90;;;;;;5052030;28;20218;-66
2022/06/28 06:55:46;;;;;;;0.77;0.77;;;20.60;99.90;;;;;;5050875;28;20204;-64
2022/06/28 06:58:13;;;;;;;0.90;0.90;;;20.40;99.90;;;;;;5055645;28;20580;-64
2022/06/28 07:00:40;;;;;;;0.77;0.77;;;20.60;99.90;;;;;;5047972;28;20624;-64
2022/06/28 07:03:07;;;;;;;1.47;1.00;;;20.80;99.90;;;;;;5054039;28;20250;-66
2022/06/28 07:05:35;;;;;;;0.60;0.60;;;20.90;99.90;;;;;;5045221;28;20283;-64
2022/06/28 07:08:02;;;;;;;0.80;0.80;;;21.00;99.90;;;;;;5054945;28;20294;-63
2022/06/28 07:10:29;;;;;;;0.90;0.90;;;21.20;99.90;;;;;;5051807;28;20283;-62
2022/06/28 07:12:55;;;;;;;0.80;0.80;;;21.30;99.90;;;;;;5059035;28;20287;-64
2022/06/28 07:15:22;;;;;;;0.80;0.80;;;21.40;99.90;;;;;;5064929;28;20271;-64
2022/06/28 07:17:49;;;;;;;1.00;1.00;;;21.30;99.90;;;;;;5056413;28;20207;-63
2022/06/28 07:20:16;;;;;;;0.90;0.90;;;21.20;99.90;;;;;;5055428;28;20247;-64
2022/06/28 07:22:44;;;;;;;0.90;0.90;;;21.00;99.90;;;;;;5066573;28;20286;-64
2022/06/28 07:25:13;;;;;;;0.80;0.80;;;21.10;99.90;;;;;;5061539;28;20282;-63
2022/06/28 07:27:40;;;;;;;0.67;0.67;;;21.20;99.90;;;;;;5062280;28;20309;-64
2022/06/28 07:30:08;;;;;;;0.70;0.70;;;21.40;99.90;;;;;;5063371;28;20281;-65
2022/06/28 07:32:35;;;;;;;0.60;0.60;;;21.60;99.90;;;;;;5058169;28;20227;-64
2022/06/28 07:35:02;;;;;;;0.80;0.80;;;21.70;99.90;;;;;;5066922;28;20294;-64
2022/06/28 07:37:29;;;;;;;1.00;1.00;;;21.70;99.90;;;;;;5065998;28;20210;-65
2022/06/28 07:39:57;;;;;;;0.73;0.73;;;21.60;99.90;;;;;;5063048;28;20228;-65
2022/06/28 07:42:24;;;;;;;0.63;0.63;;;21.80;99.90;;;;;;5060471;28;20314;-64
2022/06/28 07:44:51;;;;;;;0.70;0.70;;;21.90;99.90;;;;;;5054859;28;20291;-66
2022/06/28 07:47:18;;;;;;;0.70;0.70;;;22.00;99.90;;;;;;5070435;28;20231;-66
2022/06/28 07:52:35;;;;;;;0.70;0.70;;;21.90;99.90;;;;;;5067778;28;20440;-64
2022/06/28 07:55:05;;;;;;;0.63;0.63;;;21.90;99.90;;;;;;5063433;28;20233;-64
2022/06/28 07:57:32;;;;;;;0.60;0.60;;;21.60;99.90;;;;;;5069517;28;20282;-64
2022/06/28 07:59:59;;;;;;;0.60;0.60;;;21.40;99.90;;;;;;5059921;28;20262;-64
2022/06/28 08:02:25;;;;;;;0.50;0.50;;;21.50;99.90;;;;;;5058183;28;20227;-65
2022/06/28 08:04:52;;;;;;;0.90;0.90;;;21.60;99.90;;;;;;5054861;28;20708;-66
2022/06/28 08:07:19;;;;;;;0.67;0.67;;;21.60;99.90;;;;;;5057627;28;20227;-64
2022/06/28 08:09:46;;;;;;;0.73;0.73;;;21.60;99.90;;;;;;5064143;28;20573;-65
2022/06/28 08:12:14;;;;;;;0.67;0.67;;;21.70;99.90;;;;;;5066961;28;20219;-65
2022/06/28 08:14:41;;;;;;;0.70;0.70;;;21.80;99.90;;;;;;5052561;28;20208;-65
2022/06/28 08:17:08;;;;;;;0.90;0.90;;;21.70;99.90;;;;;;5054560;28;20561;-65
2022/06/28 08:19:36;;;;;;;0.80;0.80;;;21.80;99.90;;;;;;5063503;28;20276;-66
2022/06/28 08:22:03;;;;;;;0.53;0.53;;;22.00;99.90;;;;;;5060530;28;20242;-65
2022/06/28 08:24:31;;;;;;;0.93;0.93;;;22.00;99.90;;;;;;5062377;28;20228;-64
2022/06/28 08:26:58;;;;;;;0.90;0.90;;;21.90;99.90;;;;;;5065877;28;20208;-63
2022/06/28 08:29:26;;;;;;;1.60;0.83;;;22.00;99.90;;;;;;5062296;28;20725;-65
2022/06/28 08:31:53;;;;;;;0.80;0.80;;;22.20;99.90;;;;;;5062217;28;20277;-64
2022/06/28 08:34:20;;;;;;;0.80;0.80;;;22.50;99.90;;;;;;5063706;28;20306;-65
2022/06/28 08:36:47;;;;;;;0.70;0.70;;;22.80;99.90;;;;;;5061855;28;20209;-64
2022/06/28 08:39:14;;;;;;;0.90;0.90;;;23.00;99.90;;;;;;5063474;28;20287;-65
2022/06/28 08:41:43;;;;;;;0.70;0.70;;;23.00;99.90;;;;;;5054352;28;20232;-65
2022/06/28 08:44:11;;;;;;;0.97;0.97;;;23.10;99.90;;;;;;5062426;28;20207;-64
2022/06/28 08:46:39;;;;;;;1.10;0.80;;;23.00;99.90;;;;;;5062703;28;20642;-64
2022/06/28 08:49:13;;;;;;;0.80;0.80;;;23.10;99.90;;;;;;5065758;28;20199;-64
2022/06/28 08:51:41;;;;;;;0.80;0.80;;;23.30;99.90;;;;;;5057772;28;20307;-65
2022/06/28 08:54:08;;;;;;;0.80;0.80;;;23.50;99.90;;;;;;5064354;28;20214;-64
2022/06/28 08:56:38;;;;;;;0.90;0.90;;;23.40;99.90;;;;;;5065580;28;20214;-64
2022/06/28 08:59:07;;;;;;;1.00;1.00;;;23.40;99.90;;;;;;5069784;28;20207;-64
2022/06/28 09:01:35;;;;;;;0.80;0.80;;;23.40;99.90;;;;;;5065880;28;20223;-64
2022/06/28 09:04:04;;;;;;;0.80;0.80;;;23.40;99.90;;;;;;5072288;28;20222;-63
2022/06/28 09:06:31;;;;;;;0.75;0.75;;;23.50;99.90;;;;;;5055682;28;20215;-66
2022/06/28 09:08:58;;;;;;;0.80;0.80;;;23.60;99.90;;;;;;5058567;28;20332;-65
2022/06/28 09:11:25;;;;;;;0.70;0.70;;;23.60;99.90;;;;;;5058877;28;20227;-66
2022/06/28 09:13:52;;;;;;;0.73;0.73;;;23.70;99.90;;;;;;5061347;28;20713;-64
2022/06/28 09:16:20;;;;;;;1.03;1.03;;;23.40;99.90;;;;;;5063117;28;20287;-66
2022/06/28 09:18:48;;;;;;;0.70;0.70;;;23.30;99.90;;;;;;5062755;28;20208;-66
2022/06/28 09:21:19;;;;;;;0.80;0.80;;;23.40;99.90;;;;;;5058458;28;20220;-64
2022/06/28 09:23:48;;;;;;;0.87;0.87;;;23.50;99.90;;;;;;5062347;28;20203;-64
2022/06/28 09:26:17;;;;;;;0.80;0.80;;;23.40;99.90;;;;;;5062517;28;20196;-65
2022/06/28 09:28:46;;;;;;;0.80;0.80;;;23.70;99.90;;;;;;5060261;28;20857;-66
2022/06/28 09:31:24;;;;;;;0.80;0.80;;;23.70;99.90;;;;;;5058926;28;20757;-65
2022/06/28 09:34:05;;;;;;;0.80;0.80;;;23.90;99.90;;;;;;5063574;28;20214;-64
2022/06/28 09:36:35;;;;;;;0.80;0.80;;;24.10;99.90;;;;;;5059715;28;20294;-64
2022/06/28 09:39:11;;;;;;;0.80;0.80;;;23.90;99.90;;;;;;5058462;28;20238;-66
2022/06/28 09:41:38;;;;;;;0.80;0.80;;;23.60;99.90;;;;;;5057046;28;20234;-65
2022/06/28 09:44:07;;;;;;;0.77;0.77;;;23.50;99.90;;;;;;5063327;28;20203;-65
2022/06/28 09:46:34;;;;;;;0.80;0.80;;;23.70;99.90;;;;;;5055483;28;20299;-66
2022/06/28 09:49:04;;;;;;;1.03;0.80;;;24.00;99.90;;;;;;5053203;28;20326;-64
2022/06/28 09:51:34;;;;;;;0.60;0.60;;;24.10;99.90;;;;;;5055301;28;20222;-64
2022/06/28 09:54:03;;;;;;;0.43;0.43;;;24.30;99.90;;;;;;5065249;28;20697;-66
2022/06/28 09:56:35;;;;;;;0.77;0.75;;;24.70;99.90;;;;;;5066134;28;20679;-65
2022/06/28 09:59:02;;;;;;;0.60;0.60;;;24.50;99.90;;;;;;5059141;28;20266;-65
2022/06/28 10:01:30;;;;;;;1.05;0.70;;;24.30;99.90;;;;;;5068735;22;20228;-64
2022/06/28 10:03:58;;;;;;;0.70;0.70;;;24.60;99.90;;;;;;5026896;28;20323;-65
2022/06/28 10:06:25;;;;;;;0.80;0.80;;;24.60;99.90;;;;;;5031973;28;20288;-66
2022/06/28 10:08:54;;;;;;;0.73;0.73;;;24.50;99.90;;;;;;5027654;28;20959;-65
2022/06/28 10:11:21;;;;;;;0.70;0.70;;;24.50;99.90;;;;;;5028262;28;20299;-65
2022/06/28 10:16:47;;;;;;;0.70;0.70;;;24.60;99.90;;;;;;5028801;28;20784;-66
2022/06/28 10:19:17;;;;;;;0.80;0.80;;;24.60;99.90;;;;;;5026845;28;20204;-66
2022/06/28 10:21:45;;;;;;;0.73;0.73;;;24.40;99.90;;;;;;5025017;28;20235;-66
2022/06/28 10:24:14;;;;;;;0.50;0.50;;;24.20;99.90;;;;;;5023015;28;20200;-64
2022/06/28 10:26:45;;;;;;;0.70;0.70;;;24.20;99.90;;;;;;5022273;28;20636;-66
2022/06/28 10:29:14;;;;;;;0.80;0.80;;;24.20;99.90;;;;;;5024234;28;20591;-65
2022/06/28 10:31:42;;;;;;;0.63;0.60;;;24.20;99.90;;;;;;5026195;28;20228;-66
2022/06/28 10:34:12;;;;;;;0.80;0.80;;;24.30;99.90;;;;;;5022626;28;20197;-65
2022/06/28 10:36:54;;;;;;;1.58;0.80;;;24.40;99.90;;;;;;5024725;28;20211;-65
2022/06/28 10:39:26;;;;;;;0.67;0.67;;;24.40;99.90;;;;;;5035657;28;20265;-66
2022/06/28 10:41:56;;;;;;;1.58;0.90;;;24.70;99.90;;;;;;5034017;28;20239;-66
2022/06/28 10:44:26;;;;;;;0.60;0.60;;;24.70;99.90;;;;;;5023053;28;20252;-66
2022/06/28 10:47:14;;;;;;;0.50;0.50;;;24.80;99.90;;;;;;5020088;28;20204;-64
2022/06/28 10:49:59;;;;;;;0.50;0.50;;;25.20;99.90;;;;;;5025620;28;20205;-65
2022/06/28 10:52:30;;;;;;;0.60;0.60;;;25.50;99.90;;;;;;5033850;28;20303;-67
2022/06/28 10:55:21;;;;;;;0.65;0.65;;;25.50;99.90;;;;;;5027017;28;20236;-65
2022/06/28 10:57:48;;;;;;;0.70;0.70;;;25.70;99.90;;;;;;5033851;28;20307;-66
2022/06/28 11:00:23;;;;;;;0.70;0.70;;;25.90;99.90;;;;;;5033054;28;20235;-66
2022/06/28 11:03:00;;;;;;;0.60;0.60;;;26.00;99.90;;;;;;5032500;28;20322;-67
2022/06/28 11:05:46;;;;;;;0.70;0.70;;;26.10;99.90;;;;;;5032219;28;20240;-64
2022/06/28 11:08:18;;;;;;;0.60;0.60;;;26.00;99.90;;;;;;5031799;28;20204;-66
2022/06/28 11:11:02;;;;;;;0.60;0.60;;;25.80;99.90;;;;;;5035502;28;20197;-67
2022/06/28 11:13:30;;;;;;;0.47;0.47;;;25.70;99.90;;;;;;5029001;28;20200;-66
2022/06/28 11:15:57;;;;;;;0.75;0.75;;;25.60;99.90;;;;;;5026077;28;20251;-65
2022/06/28 11:18:24;;;;;;;0.60;0.60;;;25.60;99.90;;;;;;5031825;28;20580;-66
2022/06/28 11:20:52;;;;;;;0.70;0.70;;;25.60;99.90;;;;;;5032400;28;20224;-68
2022/06/28 11:23:24;;;;;;;1.13;0.75;;;25.50;99.90;;;;;;5032982;28;20201;-66
2022/06/28 11:28:54;;;;;;;0.63;0.63;;;25.30;99.90;;;;;;5031513;28;20285;-65
2022/06/28 11:31:21;;;;;;;0.60;0.60;;;25.10;99.90;;;;;;5032546;28;20248;-66
2022/06/28 11:33:48;;;;;;;0.70;0.70;;;25.10;99.90;;;;;;5032117;28;20258;-67
2022/06/28 11:36:23;;;;;;;0.70;0.70;;;25.20;99.90;;;;;;5032277;28;20208;-65
2022/06/28 11:38:49;;;;;;;0.60;0.60;;;25.50;99.90;;;;;;5030376;28;20208;-67
2022/06/28 11:41:28;;;;;;;0.63;0.63;;;25.50;99.90;;;;;;5031893;28;20232;-66
2022/06/28 11:44:02;;;;;;;0.60;0.60;;;25.50;99.90;;;;;;5032119;28;20212;-65
2022/06/28 11:46:29;;;;;;;0.52;0.52;;;25.60;99.90;;;;;;5032588;28;20283;-65
2022/06/28 11:48:56;;;;;;;0.50;0.50;;;25.60;99.90;;;;;;5031895;28;20303;-67
2022/06/28 11:51:29;;;;;;;0.60;0.60;;;25.70;99.90;;;;;;5032465;28;20307;-66
2022/06/28 11:53:56;;;;;;;0.50;0.50;;;26.00;99.90;;;;;;5032431;28;20681;-66
2022/06/28 11:56:23;;;;;;;0.75;0.70;;;26.10;99.90;;;;;;5032153;28;20208;-65
2022/06/28 11:58:49;;;;;;;0.65;0.65;;;26.20;99.90;;;;;;5031039;28;20232;-66
2022/06/28 12:01:19;;;;;;;0.70;0.70;;;26.20;99.90;;;;;;5031579;28;20781;-67
2022/06/28 12:03:57;;;;;;;0.70;0.70;;;26.30;99.90;;;;;;5031532;28;20243;-67
2022/06/28 12:06:28;;;;;;;0.73;0.73;;;26.40;99.90;;;;;;5031775;28;20208;-67
2022/06/28 12:08:57;;;;;;;0.55;0.55;;;26.20;99.90;;;;;;5030851;28;20204;-65
2022/06/28 12:11:36;;;;;;;0.73;0.60;;;26.30;99.90;;;;;;5031074;28;20793;-68
2022/06/28 12:14:07;;;;;;;0.50;0.50;;;26.30;99.90;;;;;;5024184;28;20192;-67
2022/06/28 12:16:37;;;;;;;0.57;0.57;;;26.30;99.90;;;;;;5030603;28;20205;-67
2022/06/28 12:19:06;;;;;;;0.70;0.70;;;26.20;99.90;;;;;;5031321;28;20232;-66
2022/06/28 12:21:33;;;;;;;0.80;0.80;;;26.10;99.90;;;;;;5031127;28;20700;-66
2022/06/28 12:24:01;;;;;;;0.90;0.90;;;26.20;99.90;;;;;;5031875;28;20306;-65
2022/06/28 12:26:41;;;;;;;0.40;0.40;;;26.40;99.90;;;;;;5032702;28;20215;-66
2022/06/28 12:29:09;;;;;;;0.32;0.32;;;26.60;99.90;;;;;;5034216;28;20203;-65
2022/06/28 12:31:40;;;;;;;0.40;0.40;;;26.60;99.90;;;;;;5035140;28;20586;-67
2022/06/28 12:34:07;;;;;;;0.40;0.40;;;26.30;99.90;;;;;;5035617;28;20208;-66
2022/06/28 12:36:35;;;;;;;0.60;0.60;;;26.20;99.90;;;;;;5038874;28;20201;-64
2022/06/28 12:39:04;;;;;;;0.70;0.70;;;26.00;99.90;;;;;;5039603;28;20263;-66
2022/06/28 12:41:31;;;;;;;0.70;0.70;;;25.90;99.90;;;;;;5035405;28;20233;-65
2022/06/28 12:43:58;;;;;;;0.50;0.50;;;25.70;99.90;;;;;;5026600;28;20210;-66
2022/06/28 12:46:25;;;;;;;0.60;0.60;;;25.70;99.90;;;;;;5034410;28;20215;-67
2022/06/28 12:48:53;;;;;;;0.60;0.60;;;25.80;99.90;;;;;;5033897;28;20219;-66
2022/06/28 12:51:21;;;;;;;0.60;0.60;;;25.70;99.90;;;;;;5034557;28;20307;-66
2022/06/28 12:53:48;;;;;;;0.60;0.60;;;25.70;99.90;;;;;;5034698;28;20209;-65
2022/06/28 12:56:16;;;;;;;0.40;0.40;;;26.00;99.90;;;;;;5034962;28;20642;-66
2022/06/28 12:58:44;;;;;;;0.70;0.70;;;26.20;99.90;;;;;;5034058;28;20205;-65
2022/06/28 13:01:11;;;;;;;0.50;0.50;;;26.40;99.90;;;;;;5034417;28;20312;-66
2022/06/28 13:03:38;;;;;;;0.60;0.60;;;26.40;99.90;;;;;;5033738;28;20696;-66
2022/06/28 13:06:07;;;;;;;0.30;0.30;;;26.50;99.90;;;;;;5034996;28;20208;-67
2022/06/28 13:08:35;;;;;;;0.40;0.40;;;26.60;99.90;;;;;;5034474;28;20256;-66
2022/06/28 13:11:02;;;;;;;0.52;0.52;;;26.60;99.90;;;;;;5035461;28;20216;-67
2022/06/28 13:13:29;;;;;;;0.63;0.63;;;26.40;99.90;;;;;;5034813;28;20690;-67